Accueil
METAR-TAF:

METAR-TAF

Aéroports :

Paris, France

Aéroport de Paris-Le Bourget

latitude: 48-58N, longitude: 002-27E, altitude: 66 m

Observation

Le bulletin a été fait il y a 13 minutes, à 00:30 UTC
Vent calme
Température 10°C
Humidité 76%
Pression 1020 hPa
Visibilité 10 km ou plus
Quelques nuages à une hauteur de 3800 ft

METAR: LFPB 240030Z AUTO 00000KT 9999 FEW038 10/06 Q1020 NOSIG

Heure: 02:43 (00:43 UTC)

Prévision

Le bulletin a été fait il y a 1 heure et 43 minutes, à 23:00 UTC
Prévision valable du 24 à 00 UTC au 24 à 24 UTC
Vent 3 kt de ouest/nord-ouest
Visibilité 10 km ou plus
Quelques nuages à une hauteur de 3500 ft

TAF: LFPB 232300Z 2400/2424 30003KT 9999 FEW035

Observations et prévisions météorologiques de plus de 4000 aéroports (messages METAR et TAF).

Les stations disponibles sont représentées par des disques jaunes et rouges sur la carte.

Passer la souris dessus pour voir le nom de la station.

Cliquer dessus pour voir les observations et prévisions météorologiques.

Pour changer de carte: cliquez sur les boutons verts avec une croix noire pour zoomer, sur le bouton vert avec un tiret pour effectuer un zoom arrière, ou sur les flèches vertes pour les cartes adjacentes.


METAR-TAF: